createdAt,value
2018-05-07T00:01:55.975Z,82.73
2018-05-07T00:04:59.303Z,83.04
2018-05-07T00:08:02.659Z,83.16
2018-05-07T00:11:05.980Z,83.17
2018-05-07T00:14:09.394Z,83.44
2018-05-07T00:17:12.778Z,83.76
2018-05-07T00:20:16.120Z,83.96
2018-05-07T00:23:20.242Z,84.18
2018-05-07T00:26:24.320Z,83.75
2018-05-07T00:29:27.640Z,83.29
2018-05-07T00:32:30.953Z,82.70
2018-05-07T00:35:35.042Z,82.60
2018-05-07T00:38:38.430Z,83.21
2018-05-07T00:41:41.750Z,83.57
2018-05-07T00:44:46.659Z,83.82
2018-05-07T00:47:50.053Z,84.28
2018-05-07T00:50:53.471Z,84.48
2018-05-07T00:53:56.858Z,84.63
2018-05-07T00:57:00.257Z,84.78
2018-05-07T01:00:03.585Z,84.93
2018-05-07T01:03:06.970Z,85.12
2018-05-07T01:06:10.272Z,84.96
2018-05-07T01:09:13.643Z,84.75
2018-05-07T01:12:16.958Z,84.70
2018-05-07T01:15:20.354Z,84.28
2018-05-07T01:18:23.672Z,84.03
2018-05-07T01:21:26.979Z,83.82
2018-05-07T01:24:30.340Z,83.53
2018-05-07T01:27:33.654Z,83.70
2018-05-07T01:30:37.237Z,84.37
2018-05-07T01:33:40.566Z,84.94
2018-05-07T01:36:43.868Z,86.00
2018-05-07T01:39:47.198Z,86.54
2018-05-07T01:42:50.524Z,86.98
2018-05-07T01:45:53.902Z,86.38
2018-05-07T01:48:57.228Z,85.73
2018-05-07T01:52:00.545Z,85.16
2018-05-07T01:55:03.860Z,85.12
2018-05-07T01:58:07.255Z,85.56
2018-05-07T02:01:10.556Z,85.76
2018-05-07T02:04:13.939Z,86.10
2018-05-07T02:07:17.324Z,86.74
2018-05-07T02:10:20.649Z,87.27
2018-05-07T02:13:24.017Z,87.53
2018-05-07T02:16:27.329Z,87.17
2018-05-07T02:19:30.718Z,86.63
2018-05-07T02:22:34.045Z,86.98
2018-05-07T02:25:37.359Z,87.54
2018-05-07T02:28:41.533Z,87.53
2018-05-07T02:31:44.839Z,87.60
2018-05-07T02:34:48.155Z,87.65
2018-05-07T02:37:51.544Z,87.60
2018-05-07T02:40:54.846Z,87.63
2018-05-07T02:43:59.682Z,87.63
2018-05-07T02:47:03.072Z,87.80
2018-05-07T02:50:06.394Z,87.88
2018-05-07T02:53:09.759Z,88.09
2018-05-07T02:56:13.157Z,88.56
2018-05-07T02:59:16.569Z,89.09
2018-05-07T03:02:19.961Z,88.81
2018-05-07T03:05:23.356Z,88.06
2018-05-07T03:08:26.665Z,88.04
2018-05-07T03:11:29.974Z,88.55
2018-05-07T03:14:33.366Z,89.21
2018-05-07T03:17:36.759Z,89.68
2018-05-07T03:20:40.776Z,89.24
2018-05-07T03:23:44.134Z,88.96
2018-05-07T03:26:47.450Z,89.15
2018-05-07T03:29:50.766Z,89.65
2018-05-07T03:32:54.781Z,90.20
2018-05-07T03:35:58.189Z,90.36
2018-05-07T03:39:01.509Z,90.40
2018-05-07T03:42:04.826Z,90.52
2018-05-07T03:45:08.913Z,89.89
2018-05-07T03:48:12.231Z,88.50
2018-05-07T03:51:16.417Z,87.93
2018-05-07T03:54:19.810Z,87.98
2018-05-07T03:57:23.209Z,88.19
2018-05-07T04:00:27.533Z,88.43
2018-05-07T04:03:30.930Z,88.89
2018-05-07T04:06:34.334Z,89.37
2018-05-07T04:09:37.734Z,89.70
2018-05-07T04:12:41.050Z,89.74
2018-05-07T04:15:44.424Z,89.48
2018-05-07T04:19:05.753Z,88.89
2018-05-07T04:22:26.809Z,88.57
2018-05-07T04:25:30.892Z,88.52
2018-05-07T04:28:34.277Z,88.78
2018-05-07T04:31:37.581Z,88.98
2018-05-07T04:34:40.913Z,88.26
2018-05-07T04:37:45.107Z,87.54
2018-05-07T04:40:48.423Z,87.09
2018-05-07T04:43:52.626Z,86.90
2018-05-07T04:46:56.023Z,86.93
2018-05-07T04:49:59.358Z,86.79
2018-05-07T04:53:03.529Z,86.76
2018-05-07T04:56:06.880Z,86.61
2018-05-07T04:59:13.342Z,86.84
2018-05-07T05:02:17.412Z,86.76
2018-05-07T05:05:20.727Z,86.58
2018-05-07T05:08:24.123Z,86.34
2018-05-07T05:11:27.448Z,86.07
2018-05-07T05:14:31.565Z,85.69
2018-05-07T05:17:36.465Z,85.42
2018-05-07T05:20:39.864Z,84.63
2018-05-07T05:23:43.190Z,84.03
2018-05-07T05:26:46.569Z,83.41
2018-05-07T05:29:49.912Z,82.77
2018-05-07T05:32:54.002Z,82.20
2018-05-07T05:35:57.337Z,81.66
2018-05-07T05:39:00.673Z,81.34
2018-05-07T05:42:03.991Z,81.06
2018-05-07T05:45:07.413Z,80.69
2018-05-07T05:48:10.674Z,79.75
2018-05-07T05:51:13.994Z,78.68
2018-05-07T05:54:18.191Z,77.73
2018-05-07T05:57:21.510Z,76.56
2018-05-07T06:00:24.900Z,76.70
2018-05-07T06:03:28.290Z,75.65
2018-05-07T06:06:31.609Z,75.38
2018-05-07T06:09:34.938Z,75.26
2018-05-07T06:12:38.327Z,74.63
2018-05-07T06:15:42.431Z,73.83
2018-05-07T06:18:46.675Z,73.13
2018-05-07T06:21:50.019Z,72.21
2018-05-07T06:24:53.358Z,71.87
2018-05-07T06:27:57.453Z,71.16
2018-05-07T06:31:00.815Z,69.84
2018-05-07T06:34:04.143Z,68.74
2018-05-07T06:37:07.462Z,67.90
2018-05-07T06:40:11.646Z,67.50
2018-05-07T06:43:15.050Z,67.08
2018-05-07T06:46:18.385Z,65.51
2018-05-07T06:49:22.578Z,65.23
2018-05-07T06:52:25.899Z,63.89
2018-05-07T06:55:29.998Z,63.34
2018-05-07T06:58:33.329Z,63.30
2018-05-07T07:01:36.671Z,62.47
2018-05-07T07:04:40.086Z,61.90
2018-05-07T07:07:43.405Z,60.97
2018-05-07T07:10:46.774Z,60.72
2018-05-07T07:13:50.190Z,59.75
2018-05-07T07:16:53.587Z,60.13
2018-05-07T07:19:57.792Z,58.67
2018-05-07T07:23:01.141Z,58.99
2018-05-07T07:26:05.273Z,58.79
2018-05-07T07:29:08.615Z,58.24
2018-05-07T07:32:11.929Z,57.88
2018-05-07T07:35:15.259Z,56.68
2018-05-07T07:38:18.577Z,57.61
2018-05-07T07:41:21.913Z,56.67
2018-05-07T07:44:25.297Z,57.19
2018-05-07T07:47:28.699Z,56.76
2018-05-07T07:50:32.020Z,55.70
2018-05-07T07:53:35.490Z,55.48
2018-05-07T07:56:38.863Z,55.64
2018-05-07T07:59:42.337Z,55.22
2018-05-07T08:02:46.421Z,55.45
2018-05-07T08:05:49.744Z,54.54
2018-05-07T08:08:53.145Z,54.16
2018-05-07T08:11:56.512Z,53.58
2018-05-07T08:14:59.869Z,53.37
2018-05-07T08:18:03.201Z,52.99
2018-05-07T08:21:06.578Z,52.66
2018-05-07T08:24:09.915Z,52.61
2018-05-07T08:27:13.274Z,52.50
2018-05-07T08:30:16.620Z,52.38
2018-05-07T08:33:19.942Z,51.43
2018-05-07T08:36:24.041Z,51.97
2018-05-07T08:39:27.369Z,51.72
2018-05-07T08:42:30.721Z,50.20
2018-05-07T08:45:34.050Z,49.87
2018-05-07T08:48:38.155Z,50.06
2018-05-07T08:51:41.494Z,50.12
2018-05-07T08:54:44.949Z,49.56
2018-05-07T08:57:48.261Z,49.09
2018-05-07T09:00:51.705Z,48.97
2018-05-07T09:03:55.033Z,48.32
2018-05-07T09:06:58.368Z,47.50
2018-05-07T09:10:02.452Z,47.08
2018-05-07T09:13:06.558Z,46.95
2018-05-07T09:16:09.980Z,45.62
2018-05-07T09:19:13.362Z,46.35
2018-05-07T09:22:16.751Z,45.74
2018-05-07T09:25:20.116Z,45.90
2018-05-07T09:28:23.438Z,45.99
2018-05-07T09:31:26.956Z,48.34
2018-05-07T09:34:30.979Z,48.47
2018-05-07T09:37:34.362Z,49.23
2018-05-07T09:40:37.765Z,49.90
2018-05-07T09:43:41.072Z,50.51
2018-05-07T09:46:44.464Z,50.91
2018-05-07T09:49:47.804Z,51.73
2018-05-07T09:52:51.893Z,50.87
2018-05-07T09:55:55.281Z,50.86
2018-05-07T09:58:59.591Z,52.17
2018-05-07T10:02:02.944Z,52.65
2018-05-07T10:05:07.052Z,52.25
2018-05-07T10:08:10.416Z,53.19
2018-05-07T10:11:13.828Z,52.47
2018-05-07T10:14:17.142Z,52.22
2018-05-07T10:17:20.482Z,51.88
2018-05-07T10:20:23.818Z,53.01
2018-05-07T10:23:27.122Z,52.10
2018-05-07T10:26:30.486Z,52.70
2018-05-07T10:29:33.881Z,53.24
2018-05-07T10:32:38.024Z,53.97
2018-05-07T10:35:41.438Z,53.90
2018-05-07T10:38:44.791Z,55.00
2018-05-07T10:41:48.121Z,54.50
2018-05-07T10:44:51.462Z,54.41
2018-05-07T10:47:55.653Z,54.68
2018-05-07T10:50:59.053Z,55.29
2018-05-07T10:54:02.469Z,55.19
2018-05-07T10:57:05.847Z,54.77
2018-05-07T11:00:09.203Z,54.05
2018-05-07T11:03:12.534Z,54.35
2018-05-07T11:06:15.938Z,54.55
2018-05-07T11:09:19.248Z,54.05
2018-05-07T11:12:22.589Z,53.17
2018-05-07T11:15:26.687Z,53.09
2018-05-07T11:18:30.053Z,53.26
2018-05-07T11:21:33.470Z,54.12
2018-05-07T11:24:36.871Z,54.14
2018-05-07T11:27:41.797Z,54.63
2018-05-07T11:30:45.148Z,54.92
2018-05-07T11:33:48.465Z,54.56
2018-05-07T11:36:52.552Z,54.22
2018-05-07T11:39:56.658Z,55.00
2018-05-07T11:43:00.740Z,54.70
2018-05-07T11:46:04.200Z,54.83
2018-05-07T11:49:07.522Z,54.36
2018-05-07T11:52:10.873Z,55.52
2018-05-07T11:55:14.970Z,54.78
2018-05-07T11:58:18.308Z,54.85
2018-05-07T12:01:21.657Z,54.75
2018-05-07T12:04:24.997Z,54.59
2018-05-07T12:07:29.157Z,53.73
2018-05-07T12:10:33.230Z,53.34
2018-05-07T12:13:37.309Z,53.84
2018-05-07T12:16:40.706Z,52.80
2018-05-07T12:19:44.025Z,53.04
2018-05-07T12:22:48.116Z,52.95
2018-05-07T12:25:51.518Z,54.10
2018-05-07T12:28:54.838Z,53.79
2018-05-07T12:31:58.266Z,53.52
2018-05-07T12:35:01.625Z,53.69
2018-05-07T12:38:05.039Z,53.64
2018-05-07T12:41:08.400Z,53.31
2018-05-07T12:44:11.818Z,53.52
2018-05-07T12:47:15.204Z,53.51
2018-05-07T12:50:18.561Z,53.60
2018-05-07T12:53:21.911Z,53.66
2018-05-07T12:56:25.245Z,53.92
2018-05-07T12:59:29.328Z,54.36
2018-05-07T13:02:32.650Z,54.79
2018-05-07T13:05:35.993Z,55.00
2018-05-07T13:08:39.408Z,55.13
2018-05-07T13:11:42.751Z,55.19
2018-05-07T13:14:46.828Z,55.09
2018-05-07T13:17:50.153Z,54.83
2018-05-07T13:20:53.489Z,54.37
2018-05-07T13:23:56.831Z,53.56
2018-05-07T13:27:00.224Z,53.10
2018-05-07T13:30:03.630Z,52.86
2018-05-07T13:33:06.952Z,53.08
2018-05-07T13:36:11.092Z,52.35
2018-05-07T13:39:15.265Z,52.43
2018-05-07T13:42:18.596Z,52.07
2018-05-07T13:45:22.782Z,52.04
2018-05-07T13:48:26.190Z,51.77
2018-05-07T13:51:29.579Z,52.05
2018-05-07T13:54:32.909Z,52.26
2018-05-07T13:57:36.994Z,51.31
2018-05-07T14:00:40.330Z,50.26
2018-05-07T14:03:44.409Z,49.99
2018-05-07T14:06:47.805Z,49.38
2018-05-07T14:09:51.211Z,49.92
2018-05-07T14:12:54.606Z,49.96
2018-05-07T14:15:58.006Z,50.01
2018-05-07T14:19:01.401Z,49.94
2018-05-07T14:22:04.819Z,50.04
2018-05-07T14:25:08.199Z,49.49
2018-05-07T14:28:11.661Z,49.87
2018-05-07T14:31:15.008Z,49.10
2018-05-07T14:34:18.331Z,49.16
2018-05-07T14:37:21.708Z,48.55
2018-05-07T14:40:25.112Z,47.92
2018-05-07T14:43:28.513Z,47.66
2018-05-07T14:46:31.856Z,48.03
2018-05-07T14:49:35.190Z,48.53
2018-05-07T14:52:38.522Z,48.32
2018-05-07T14:55:41.859Z,48.31
2018-05-07T14:58:45.261Z,48.62
2018-05-07T15:01:48.593Z,48.51
2018-05-07T15:04:51.995Z,48.54
2018-05-07T15:07:55.324Z,48.94
2018-05-07T15:10:59.407Z,49.47
2018-05-07T15:14:20.412Z,49.18
2018-05-07T15:17:23.768Z,48.56
2018-05-07T15:20:27.948Z,47.93
2018-05-07T15:23:31.288Z,47.23
2018-05-07T15:26:34.626Z,47.62
2018-05-07T15:29:37.942Z,47.09
2018-05-07T15:32:41.336Z,46.72
2018-05-07T15:35:44.749Z,46.47
2018-05-07T15:38:48.060Z,46.44
2018-05-07T15:41:51.443Z,46.25
2018-05-07T15:44:54.781Z,45.30
2018-05-07T15:47:58.874Z,44.72
2018-05-07T15:51:03.068Z,44.94
2018-05-07T15:54:06.394Z,44.83
2018-05-07T15:57:10.497Z,44.32
2018-05-07T16:00:13.889Z,44.03
2018-05-07T16:03:17.305Z,44.02
2018-05-07T16:06:20.704Z,43.95
2018-05-07T16:09:23.976Z,43.47
2018-05-07T16:12:27.314Z,42.90
2018-05-07T16:15:31.598Z,42.35
2018-05-07T16:18:35.664Z,41.99
2018-05-07T16:21:39.865Z,42.12
2018-05-07T16:24:43.174Z,42.39
2018-05-07T16:27:46.502Z,41.69
2018-05-07T16:30:49.927Z,41.21
2018-05-07T16:33:53.317Z,41.80
2018-05-07T16:36:56.718Z,42.36
2018-05-07T16:40:00.061Z,43.29
2018-05-07T16:43:04.155Z,43.79
2018-05-07T16:46:07.538Z,43.97
2018-05-07T16:49:10.931Z,44.35
2018-05-07T16:52:14.276Z,44.51
2018-05-07T16:55:17.639Z,44.11
2018-05-07T16:58:20.982Z,43.73
2018-05-07T17:01:24.310Z,43.53
2018-05-07T17:04:27.720Z,43.35
2018-05-07T17:07:31.122Z,43.62
2018-05-07T17:10:34.443Z,43.57
2018-05-07T17:13:37.787Z,43.50
2018-05-07T17:16:41.226Z,43.27
2018-05-07T17:19:44.549Z,43.64
2018-05-07T17:22:48.771Z,44.35
2018-05-07T17:25:52.948Z,45.31
2018-05-07T17:28:56.283Z,47.52
2018-05-07T17:32:00.422Z,49.69
2018-05-07T17:35:03.735Z,51.39
2018-05-07T17:38:07.066Z,52.74
2018-05-07T17:41:10.476Z,53.87
2018-05-07T17:44:31.741Z,54.66
2018-05-07T17:47:52.904Z,55.47
2018-05-07T17:50:56.212Z,56.02
2018-05-07T17:53:59.603Z,56.45
2018-05-07T17:57:02.990Z,56.69
2018-05-07T18:00:06.322Z,57.06
2018-05-07T18:03:10.432Z,57.33
2018-05-07T18:06:13.807Z,57.19
2018-05-07T18:09:17.152Z,57.26
2018-05-07T18:12:20.490Z,57.15
2018-05-07T18:15:23.955Z,57.37
2018-05-07T18:18:27.313Z,57.62
2018-05-07T18:21:30.704Z,57.93
2018-05-07T18:24:34.095Z,58.43
2018-05-07T18:27:37.497Z,58.64
2018-05-07T18:30:40.824Z,59.15
2018-05-07T18:33:45.034Z,59.74
2018-05-07T18:36:49.153Z,60.23
2018-05-07T18:39:52.535Z,60.83
2018-05-07T18:42:55.864Z,61.54
2018-05-07T18:45:59.959Z,61.92
2018-05-07T18:49:03.349Z,62.20
2018-05-07T18:52:06.766Z,62.58
2018-05-07T18:55:10.078Z,63.01
2018-05-07T18:58:14.268Z,63.42
2018-05-07T19:01:17.600Z,63.87
2018-05-07T19:04:21.785Z,64.30
2018-05-07T19:07:25.183Z,64.23
2018-05-07T19:10:30.519Z,64.33
2018-05-07T19:13:33.951Z,64.57
2018-05-07T19:16:37.274Z,64.43
2018-05-07T19:19:40.618Z,64.37
2018-05-07T19:22:43.965Z,64.42
2018-05-07T19:25:48.155Z,64.54
2018-05-07T19:28:51.487Z,64.81
2018-05-07T19:31:54.822Z,65.06
2018-05-07T19:34:58.273Z,65.33
2018-05-07T19:38:01.728Z,65.81
2018-05-07T19:41:05.958Z,66.62
2018-05-07T19:44:09.346Z,67.19
2018-05-07T19:47:12.753Z,68.08
2018-05-07T19:50:16.062Z,68.39
2018-05-07T19:53:19.416Z,69.10
2018-05-07T19:56:22.885Z,69.93
2018-05-07T19:59:26.219Z,70.60
2018-05-07T20:02:29.637Z,70.90
2018-05-07T20:05:32.959Z,71.02
2018-05-07T20:08:36.288Z,71.56
2018-05-07T20:11:39.848Z,72.09
2018-05-07T20:14:43.233Z,72.15
2018-05-07T20:17:46.640Z,72.13
2018-05-07T20:20:50.043Z,71.83
2018-05-07T20:23:53.442Z,71.67
2018-05-07T20:26:56.804Z,71.55
2018-05-07T20:30:00.113Z,70.99
2018-05-07T20:33:03.538Z,70.65
2018-05-07T20:36:06.953Z,70.53
2018-05-07T20:39:10.286Z,70.65
2018-05-07T20:42:13.621Z,70.53
2018-05-07T20:45:17.050Z,70.51
2018-05-07T20:48:20.402Z,70.51
2018-05-07T20:51:23.717Z,70.49
2018-05-07T20:54:27.054Z,70.28
2018-05-07T20:57:30.376Z,69.44
2018-05-07T21:00:33.715Z,69.55
2018-05-07T21:03:37.024Z,69.63
2018-05-07T21:06:40.421Z,69.63
2018-05-07T21:09:43.822Z,69.52
2018-05-07T21:12:47.239Z,69.40
2018-05-07T21:15:50.612Z,68.89
2018-05-07T21:18:53.958Z,69.25
2018-05-07T21:21:58.037Z,69.41
2018-05-07T21:25:01.386Z,69.62
2018-05-07T21:28:04.697Z,69.81
2018-05-07T21:31:08.123Z,69.89
2018-05-07T21:34:11.531Z,70.46
2018-05-07T21:37:14.882Z,70.55
2018-05-07T21:40:18.357Z,70.61
2018-05-07T21:43:21.693Z,70.67
2018-05-07T21:46:25.010Z,70.89
2018-05-07T21:49:28.341Z,70.42
2018-05-07T21:52:31.825Z,70.26
2018-05-07T21:55:35.186Z,69.99
2018-05-07T21:58:38.492Z,69.56
2018-05-07T22:01:41.845Z,69.31
2018-05-07T22:04:46.670Z,68.90
2018-05-07T22:07:50.015Z,68.43
2018-05-07T22:10:53.330Z,68.03
2018-05-07T22:13:56.665Z,68.14
2018-05-07T22:17:00.046Z,68.24
2018-05-07T22:20:03.385Z,68.59
2018-05-07T22:23:07.457Z,69.37
2018-05-07T22:26:10.794Z,70.21
2018-05-07T22:29:15.645Z,70.56
2018-05-07T22:32:19.076Z,70.94
2018-05-07T22:35:22.481Z,71.61
2018-05-07T22:38:25.855Z,72.12
2018-05-07T22:41:29.156Z,73.18
2018-05-07T22:44:32.580Z,74.01
2018-05-07T22:47:35.992Z,74.70
2018-05-07T22:50:39.377Z,75.44
2018-05-07T22:53:42.693Z,76.08
2018-05-07T22:56:46.039Z,76.48
2018-05-07T22:59:49.384Z,76.89
2018-05-07T23:02:52.784Z,77.26
2018-05-07T23:05:56.188Z,77.43
2018-05-07T23:08:59.582Z,77.55
2018-05-07T23:12:04.317Z,77.70
2018-05-07T23:15:07.643Z,77.81
2018-05-07T23:18:11.010Z,77.97
2018-05-07T23:21:14.409Z,78.26
2018-05-07T23:24:17.721Z,78.32
2018-05-07T23:27:21.100Z,78.72
2018-05-07T23:30:24.410Z,78.89
2018-05-07T23:33:27.752Z,78.97
2018-05-07T23:36:31.930Z,79.02
2018-05-07T23:39:35.312Z,79.06
2018-05-07T23:42:38.650Z,79.28
2018-05-07T23:45:42.762Z,79.07
2018-05-07T23:48:46.090Z,78.57
2018-05-07T23:51:49.538Z,78.42
2018-05-07T23:54:52.930Z,78.40
2018-05-07T23:57:56.330Z,78.83
